createdAt,value
2022-08-31T00:01:42.721Z,55.17
2022-08-31T00:04:11.161Z,55.09
2022-08-31T00:06:40.435Z,55.33
2022-08-31T00:09:08.333Z,55.32
2022-08-31T00:11:36.320Z,55.28
2022-08-31T00:14:08.111Z,55.46
2022-08-31T00:16:45.063Z,55.36
2022-08-31T00:19:15.144Z,55.59
2022-08-31T00:21:47.319Z,55.69
2022-08-31T00:24:16.302Z,56.04
2022-08-31T00:26:43.240Z,55.42
2022-08-31T00:29:13.668Z,55.82
2022-08-31T00:31:40.601Z,55.53
2022-08-31T00:34:07.545Z,55.94
2022-08-31T00:36:34.452Z,56.02
2022-08-31T00:39:04.175Z,55.82
2022-08-31T00:41:34.616Z,55.88
2022-08-31T00:44:07.831Z,56.06
2022-08-31T00:46:38.710Z,55.93
2022-08-31T00:49:23.944Z,55.61
2022-08-31T00:52:02.416Z,55.85
2022-08-31T00:54:35.300Z,55.99
2022-08-31T00:57:06.164Z,56.21
2022-08-31T00:59:38.555Z,56.02
2022-08-31T01:02:08.871Z,56.59
2022-08-31T01:04:36.525Z,56.69
2022-08-31T01:07:04.924Z,56.40
2022-08-31T01:09:40.163Z,56.86
2022-08-31T01:12:12.038Z,56.87
2022-08-31T01:14:39.679Z,56.99
2022-08-31T01:17:09.803Z,57.10
2022-08-31T01:19:43.380Z,57.18
2022-08-31T01:22:36.923Z,57.48
2022-08-31T01:25:07.102Z,57.30
2022-08-31T01:27:38.491Z,57.45
2022-08-31T01:30:09.703Z,57.47
2022-08-31T01:32:37.541Z,56.99
2022-08-31T01:35:05.025Z,57.18
2022-08-31T01:37:32.013Z,57.33
2022-08-31T01:40:10.486Z,57.49
2022-08-31T01:42:37.426Z,57.40
2022-08-31T01:45:06.277Z,57.40
2022-08-31T01:47:35.666Z,57.51
2022-08-31T01:50:02.435Z,57.28
2022-08-31T01:52:29.847Z,57.00
2022-08-31T01:54:56.726Z,57.10
2022-08-31T01:57:33.500Z,57.06
2022-08-31T02:00:30.047Z,56.68
2022-08-31T02:02:59.982Z,56.25
2022-08-31T02:05:29.965Z,55.80
2022-08-31T02:07:57.511Z,56.71
2022-08-31T02:10:24.913Z,56.93
2022-08-31T02:12:51.967Z,56.97
2022-08-31T02:15:29.432Z,56.65
2022-08-31T02:17:56.233Z,56.61
2022-08-31T02:20:25.315Z,57.27
2022-08-31T02:22:52.012Z,56.95
2022-08-31T02:25:21.012Z,55.22
2022-08-31T02:27:48.067Z,56.16
2022-08-31T02:30:19.618Z,56.59
2022-08-31T02:32:46.356Z,56.59
2022-08-31T02:35:13.723Z,56.87
2022-08-31T02:37:43.149Z,56.74
2022-08-31T02:40:13.521Z,56.58
2022-08-31T02:42:52.164Z,56.99
2022-08-31T02:45:23.557Z,56.89
2022-08-31T02:47:54.036Z,56.93
2022-08-31T02:50:27.999Z,56.97
2022-08-31T02:52:56.856Z,56.58
2022-08-31T02:55:25.197Z,56.50
2022-08-31T02:57:52.655Z,56.75
2022-08-31T03:00:23.112Z,56.80
2022-08-31T03:02:50.948Z,56.84
2022-08-31T03:05:22.107Z,57.05
2022-08-31T03:07:54.612Z,56.92
2022-08-31T03:10:23.625Z,56.79
2022-08-31T03:12:51.771Z,56.77
2022-08-31T03:15:20.562Z,56.64
2022-08-31T03:17:52.987Z,56.64
2022-08-31T03:20:23.259Z,57.00
2022-08-31T03:22:54.131Z,57.30
2022-08-31T03:25:23.949Z,57.66
2022-08-31T03:27:53.831Z,58.18
2022-08-31T03:30:22.488Z,58.25
2022-08-31T03:33:04.634Z,58.69
2022-08-31T03:35:36.186Z,58.93
2022-08-31T03:38:08.735Z,59.20
2022-08-31T03:40:40.411Z,59.46
2022-08-31T03:43:11.693Z,59.64
2022-08-31T03:45:42.360Z,59.95
2022-08-31T03:48:12.784Z,60.34
2022-08-31T03:50:42.502Z,60.95
2022-08-31T03:53:15.672Z,61.00
2022-08-31T03:55:46.598Z,61.27
2022-08-31T03:58:16.035Z,61.61
2022-08-31T04:00:44.234Z,61.58
2022-08-31T04:03:29.397Z,61.81
2022-08-31T04:06:19.281Z,61.81
2022-08-31T04:09:04.884Z,62.03
2022-08-31T04:12:02.946Z,61.98
2022-08-31T04:14:48.555Z,61.51
2022-08-31T04:17:33.683Z,61.57
2022-08-31T04:20:29.667Z,61.26
2022-08-31T04:22:59.579Z,61.21
2022-08-31T04:25:37.129Z,61.28
2022-08-31T04:28:04.105Z,61.32
2022-08-31T04:30:34.523Z,61.17
2022-08-31T04:33:02.241Z,61.02
2022-08-31T04:35:29.570Z,61.12
2022-08-31T04:37:56.700Z,61.32
2022-08-31T04:40:26.668Z,61.31
2022-08-31T04:42:54.630Z,60.98
2022-08-31T04:45:24.740Z,60.80
2022-08-31T04:47:53.653Z,60.95
2022-08-31T04:50:20.689Z,61.16
2022-08-31T04:53:18.732Z,61.34
2022-08-31T04:55:45.692Z,61.22
2022-08-31T04:58:13.902Z,61.03
2022-08-31T05:00:47.081Z,61.04
2022-08-31T05:03:27.634Z,60.84
2022-08-31T05:06:01.393Z,61.45
2022-08-31T05:08:31.057Z,61.22
2022-08-31T05:11:00.592Z,61.54
2022-08-31T05:13:29.616Z,61.82
2022-08-31T05:15:59.083Z,62.12
2022-08-31T05:18:26.360Z,62.00
2022-08-31T05:21:10.675Z,62.23
2022-08-31T05:23:37.885Z,62.25
2022-08-31T05:26:05.143Z,62.32
2022-08-31T05:28:33.610Z,62.30
2022-08-31T05:31:01.374Z,62.20
2022-08-31T05:33:42.627Z,61.76
2022-08-31T05:36:10.910Z,61.85
2022-08-31T05:38:41.070Z,61.65
2022-08-31T05:41:09.879Z,61.63
2022-08-31T05:43:38.171Z,61.53
2022-08-31T05:46:12.232Z,61.48
2022-08-31T05:48:41.644Z,61.34
2022-08-31T05:51:17.698Z,61.23
2022-08-31T05:53:51.329Z,61.05
2022-08-31T05:56:21.433Z,61.01
2022-08-31T05:58:50.470Z,60.96
2022-08-31T06:01:30.889Z,60.82
2022-08-31T06:04:19.655Z,60.46
2022-08-31T06:06:49.699Z,60.35
2022-08-31T06:09:19.757Z,59.89
2022-08-31T06:11:51.373Z,59.15
2022-08-31T06:14:18.956Z,58.81
2022-08-31T06:16:49.141Z,58.34
2022-08-31T06:19:18.941Z,58.27
2022-08-31T06:21:51.047Z,58.24
2022-08-31T06:24:23.024Z,57.68
2022-08-31T06:26:59.157Z,57.42
2022-08-31T06:29:33.098Z,57.42
2022-08-31T06:32:08.350Z,57.02
2022-08-31T06:34:42.662Z,57.13
2022-08-31T06:37:32.418Z,56.81
2022-08-31T06:40:19.466Z,56.72
2022-08-31T06:43:24.614Z,56.48
2022-08-31T06:45:59.928Z,56.40
2022-08-31T06:48:35.430Z,56.18
2022-08-31T06:51:06.904Z,56.23
2022-08-31T06:53:35.215Z,55.80
2022-08-31T06:56:35.322Z,55.83
2022-08-31T06:59:21.415Z,55.93
2022-08-31T07:02:08.335Z,55.55
2022-08-31T07:04:38.658Z,55.28
2022-08-31T07:07:11.566Z,55.17
2022-08-31T07:09:41.116Z,54.92
2022-08-31T07:12:10.651Z,54.18
2022-08-31T07:14:38.299Z,54.03
2022-08-31T07:17:07.801Z,52.20
2022-08-31T07:19:35.263Z,52.97
2022-08-31T07:22:09.661Z,53.12
2022-08-31T07:24:41.732Z,52.87
2022-08-31T07:27:13.038Z,52.30
2022-08-31T07:29:45.927Z,52.27
2022-08-31T07:32:18.053Z,52.33
2022-08-31T07:34:53.350Z,51.80
2022-08-31T07:37:58.945Z,52.10
2022-08-31T07:40:48.731Z,51.63
2022-08-31T07:43:19.026Z,51.62
2022-08-31T07:45:46.268Z,51.82
2022-08-31T07:48:19.915Z,51.23
2022-08-31T07:50:57.852Z,50.82
2022-08-31T07:53:47.707Z,51.63
2022-08-31T07:56:35.126Z,51.23
2022-08-31T07:59:11.348Z,50.64
2022-08-31T08:01:41.472Z,50.55
2022-08-31T08:04:09.583Z,50.64
2022-08-31T08:07:00.659Z,50.33
2022-08-31T08:09:47.280Z,50.03
2022-08-31T08:12:36.355Z,49.59
2022-08-31T08:15:22.378Z,49.05
2022-08-31T08:18:12.240Z,48.42
2022-08-31T08:20:48.071Z,48.99
2022-08-31T08:23:18.090Z,49.25
2022-08-31T08:26:25.158Z,49.20
2022-08-31T08:29:23.560Z,48.72
2022-08-31T08:31:56.187Z,48.70
2022-08-31T08:34:31.049Z,48.15
2022-08-31T08:37:00.174Z,47.56
2022-08-31T08:39:27.741Z,47.49
2022-08-31T08:42:13.442Z,47.49
2022-08-31T08:44:41.066Z,47.24
2022-08-31T08:47:15.217Z,47.24
2022-08-31T08:49:55.290Z,46.16
2022-08-31T08:52:50.623Z,45.67
2022-08-31T08:55:22.248Z,45.75
2022-08-31T08:57:56.131Z,45.48
2022-08-31T09:00:28.551Z,45.09
2022-08-31T09:03:07.312Z,44.36
2022-08-31T09:06:09.954Z,42.26
2022-08-31T09:09:08.402Z,42.11
2022-08-31T09:11:46.731Z,43.46
2022-08-31T09:14:30.139Z,42.84
2022-08-31T09:17:06.066Z,42.05
2022-08-31T09:19:53.018Z,41.71
2022-08-31T09:22:24.691Z,40.66
2022-08-31T09:24:59.399Z,40.66
2022-08-31T09:27:57.485Z,41.01
2022-08-31T09:30:52.432Z,36.11
2022-08-31T09:33:25.160Z,39.57
2022-08-31T09:35:58.255Z,39.67
2022-08-31T09:38:31.921Z,39.26
2022-08-31T09:41:08.321Z,38.53
2022-08-31T09:43:38.318Z,37.28
2022-08-31T09:46:11.703Z,37.69
2022-08-31T09:48:44.164Z,37.34
2022-08-31T09:51:21.060Z,38.13
2022-08-31T09:54:06.222Z,37.90
2022-08-31T09:56:52.141Z,36.70
2022-08-31T09:59:42.165Z,36.83
2022-08-31T10:02:22.853Z,36.26
2022-08-31T10:04:57.512Z,36.61
2022-08-31T10:07:35.202Z,36.95
2022-08-31T10:10:30.522Z,36.19
2022-08-31T10:13:05.317Z,35.48
2022-08-31T10:15:53.312Z,33.52
2022-08-31T10:18:31.493Z,34.42
2022-08-31T10:21:13.752Z,34.09
2022-08-31T10:23:54.330Z,34.15
2022-08-31T10:26:38.551Z,33.63
2022-08-31T10:29:23.320Z,33.42
2022-08-31T10:31:55.472Z,33.88
2022-08-31T10:34:43.625Z,33.68
2022-08-31T10:37:25.306Z,31.55
2022-08-31T10:39:54.835Z,32.98
2022-08-31T10:42:26.340Z,32.31
2022-08-31T10:44:58.370Z,32.47
2022-08-31T10:47:32.991Z,32.17
2022-08-31T10:50:06.067Z,31.49
2022-08-31T10:52:32.998Z,31.15
2022-08-31T10:55:30.725Z,30.65
2022-08-31T10:58:25.062Z,31.03
2022-08-31T11:00:56.665Z,31.63
2022-08-31T11:03:46.799Z,31.11
2022-08-31T11:06:23.984Z,30.72
2022-08-31T11:09:13.067Z,31.10
2022-08-31T11:12:06.912Z,29.12
2022-08-31T11:15:12.317Z,30.16
2022-08-31T11:18:16.528Z,30.64
2022-08-31T11:21:11.011Z,30.44
2022-08-31T11:24:06.751Z,31.01
2022-08-31T11:26:58.024Z,30.55
2022-08-31T11:29:43.853Z,30.19
2022-08-31T11:32:26.654Z,29.92
2022-08-31T11:34:56.580Z,29.68
2022-08-31T11:37:54.812Z,28.32
2022-08-31T11:40:41.992Z,28.43
2022-08-31T11:43:31.458Z,28.73
2022-08-31T11:46:17.551Z,28.03
2022-08-31T11:48:53.892Z,28.46
2022-08-31T11:51:44.915Z,26.71
2022-08-31T11:54:42.020Z,27.93
2022-08-31T11:57:18.504Z,26.92
2022-08-31T11:59:49.175Z,27.03
2022-08-31T12:02:26.035Z,26.35
2022-08-31T12:04:58.742Z,26.79
2022-08-31T12:07:34.629Z,26.04
2022-08-31T12:10:25.499Z,25.47
2022-08-31T12:13:19.523Z,23.93
2022-08-31T12:16:07.861Z,23.91
2022-08-31T12:19:08.793Z,23.44
2022-08-31T12:21:57.203Z,23.56
2022-08-31T12:24:49.434Z,23.39
2022-08-31T12:27:32.223Z,23.35
2022-08-31T12:30:23.333Z,23.23
2022-08-31T12:33:13.238Z,23.39
2022-08-31T12:35:40.026Z,23.52
2022-08-31T12:38:18.147Z,23.00
2022-08-31T12:40:51.276Z,23.05
2022-08-31T12:43:36.574Z,23.62
2022-08-31T12:46:25.378Z,24.91
2022-08-31T12:49:16.753Z,24.87
2022-08-31T12:51:49.481Z,25.62
2022-08-31T12:54:53.472Z,25.70
2022-08-31T12:57:26.894Z,26.52
2022-08-31T13:00:13.010Z,25.60
2022-08-31T13:02:43.496Z,26.04
2022-08-31T13:05:27.318Z,26.11
2022-08-31T13:07:55.022Z,26.28
2022-08-31T13:10:45.179Z,26.62
2022-08-31T13:13:21.799Z,26.97
2022-08-31T13:15:57.475Z,27.12
2022-08-31T13:18:27.032Z,25.53
2022-08-31T13:20:56.595Z,24.97
2022-08-31T13:23:31.448Z,25.04
2022-08-31T13:26:20.704Z,25.03
2022-08-31T13:28:53.207Z,25.00
2022-08-31T13:31:23.707Z,24.48
2022-08-31T13:33:57.014Z,23.64
2022-08-31T13:36:33.105Z,23.85
2022-08-31T13:39:17.205Z,24.30
2022-08-31T13:42:05.909Z,23.56
2022-08-31T13:44:40.262Z,23.65
2022-08-31T13:47:27.568Z,22.04
2022-08-31T13:50:13.014Z,22.73
2022-08-31T13:53:09.669Z,21.60
2022-08-31T13:55:42.142Z,21.49
2022-08-31T13:58:30.907Z,20.76
2022-08-31T14:01:25.931Z,20.13
2022-08-31T14:03:58.983Z,20.28
2022-08-31T14:06:32.776Z,20.28
2022-08-31T14:09:08.016Z,19.88
2022-08-31T14:11:37.461Z,19.49
2022-08-31T14:14:09.679Z,18.46
2022-08-31T14:16:43.645Z,19.16
2022-08-31T14:19:13.204Z,19.64
2022-08-31T14:21:42.175Z,18.42
2022-08-31T14:24:12.421Z,18.15
2022-08-31T14:26:42.866Z,18.21
2022-08-31T14:29:17.811Z,18.92
2022-08-31T14:31:52.728Z,19.09
2022-08-31T14:34:28.188Z,19.23
2022-08-31T14:37:07.258Z,20.37
2022-08-31T14:39:37.052Z,21.16
2022-08-31T14:42:11.734Z,21.22
2022-08-31T14:44:41.292Z,21.64
2022-08-31T14:47:09.922Z,21.61
2022-08-31T14:49:37.276Z,20.84
2022-08-31T14:52:06.348Z,20.59
2022-08-31T14:54:37.469Z,20.57
2022-08-31T14:57:25.421Z,19.57
2022-08-31T14:59:59.772Z,19.97
2022-08-31T15:02:33.617Z,20.15
2022-08-31T15:05:04.787Z,20.66
2022-08-31T15:07:35.751Z,20.32
2022-08-31T15:10:07.550Z,20.98
2022-08-31T15:12:38.167Z,20.02
2022-08-31T15:15:07.073Z,21.03
2022-08-31T15:17:39.608Z,20.85
2022-08-31T15:20:12.552Z,20.69
2022-08-31T15:22:41.310Z,20.91
2022-08-31T15:25:11.978Z,21.00
2022-08-31T15:27:43.945Z,20.77
2022-08-31T15:30:16.093Z,21.04
2022-08-31T15:32:47.814Z,21.21
2022-08-31T15:35:20.535Z,21.88
2022-08-31T15:37:57.050Z,22.52
2022-08-31T15:40:29.134Z,23.00
2022-08-31T15:42:56.317Z,24.04
2022-08-31T15:45:25.361Z,24.16
2022-08-31T15:48:10.571Z,24.41
2022-08-31T15:50:38.450Z,25.48
2022-08-31T15:53:09.873Z,25.71
2022-08-31T15:55:40.471Z,25.89
2022-08-31T15:58:10.525Z,25.99
2022-08-31T16:00:37.964Z,26.35
2022-08-31T16:03:07.248Z,27.03
2022-08-31T16:05:39.289Z,27.71
2022-08-31T16:08:11.185Z,28.07
2022-08-31T16:10:44.983Z,28.58
2022-08-31T16:13:17.894Z,29.38
2022-08-31T16:15:50.991Z,29.49
2022-08-31T16:18:22.170Z,29.48
2022-08-31T16:20:50.300Z,29.54
2022-08-31T16:23:17.370Z,30.13
2022-08-31T16:25:48.087Z,30.12
2022-08-31T16:28:19.616Z,30.04
2022-08-31T16:30:49.009Z,30.29
2022-08-31T16:33:18.258Z,30.45
2022-08-31T16:35:45.782Z,30.88
2022-08-31T16:38:13.900Z,31.25
2022-08-31T16:40:41.750Z,31.55
2022-08-31T16:43:11.305Z,31.73
2022-08-31T16:45:39.929Z,31.92
2022-08-31T16:48:25.910Z,32.81
2022-08-31T16:50:56.503Z,32.97
2022-08-31T16:53:25.903Z,33.32
2022-08-31T16:55:53.457Z,33.72
2022-08-31T16:58:50.173Z,34.52
2022-08-31T17:01:14.008Z,34.42
2022-08-31T17:03:44.616Z,34.50
2022-08-31T17:06:15.847Z,34.91
2022-08-31T17:08:48.961Z,35.44
2022-08-31T17:11:17.890Z,36.64
2022-08-31T17:13:47.536Z,35.50
2022-08-31T17:16:21.288Z,35.80
2022-08-31T17:18:52.625Z,36.00
2022-08-31T17:21:24.962Z,36.23
2022-08-31T17:23:52.409Z,36.74
2022-08-31T17:26:31.108Z,36.76
2022-08-31T17:29:02.368Z,36.62
2022-08-31T17:31:34.642Z,37.20
2022-08-31T17:34:01.942Z,37.17
2022-08-31T17:36:37.223Z,37.51
2022-08-31T17:39:05.972Z,37.48
2022-08-31T17:41:33.444Z,37.48
2022-08-31T17:44:00.593Z,37.45
2022-08-31T17:46:27.839Z,37.90
2022-08-31T17:48:56.195Z,38.11
2022-08-31T17:51:28.757Z,38.26
2022-08-31T17:53:59.632Z,38.14
2022-08-31T17:56:36.020Z,38.35
2022-08-31T17:59:05.210Z,38.59
2022-08-31T18:01:32.204Z,38.39
2022-08-31T18:04:00.836Z,38.81
2022-08-31T18:06:34.112Z,38.35
2022-08-31T18:09:01.563Z,39.08
2022-08-31T18:11:31.083Z,39.03
2022-08-31T18:14:01.023Z,38.53
2022-08-31T18:16:28.498Z,39.09
2022-08-31T18:18:55.762Z,39.03
2022-08-31T18:21:23.710Z,38.71
2022-08-31T18:23:53.625Z,38.91
2022-08-31T18:26:25.335Z,39.40
2022-08-31T18:28:52.990Z,39.21
2022-08-31T18:31:25.083Z,39.88
2022-08-31T18:33:53.699Z,39.66
2022-08-31T18:36:23.160Z,39.74
2022-08-31T18:38:57.695Z,40.44
2022-08-31T18:41:45.579Z,40.24
2022-08-31T18:44:31.792Z,40.55
2022-08-31T18:47:00.268Z,40.10
2022-08-31T18:49:28.107Z,39.91
2022-08-31T18:51:56.444Z,40.26
2022-08-31T18:54:24.128Z,40.01
2022-08-31T18:56:51.101Z,39.82
2022-08-31T18:59:21.968Z,39.51
2022-08-31T19:01:52.248Z,39.18
2022-08-31T19:04:21.928Z,38.75
2022-08-31T19:06:49.807Z,38.26
2022-08-31T19:09:22.338Z,38.19
2022-08-31T19:11:51.296Z,37.72
2022-08-31T19:14:21.388Z,37.38
2022-08-31T19:16:55.171Z,36.85
2022-08-31T19:19:33.939Z,36.77
2022-08-31T19:22:03.599Z,36.87
2022-08-31T19:24:30.414Z,36.14
2022-08-31T19:26:59.159Z,36.55
2022-08-31T19:29:31.521Z,35.74
2022-08-31T19:32:02.762Z,36.67
2022-08-31T19:34:32.358Z,36.12
2022-08-31T19:37:03.697Z,36.09
2022-08-31T19:39:37.107Z,36.37
2022-08-31T19:42:06.930Z,35.73
2022-08-31T19:44:54.950Z,36.10
2022-08-31T19:47:28.639Z,36.22
2022-08-31T19:50:01.420Z,36.09
2022-08-31T19:52:28.140Z,36.19
2022-08-31T19:54:55.419Z,36.54
2022-08-31T19:57:22.623Z,36.35
2022-08-31T19:59:49.835Z,36.76
2022-08-31T20:02:17.222Z,36.70
2022-08-31T20:04:46.364Z,36.27
2022-08-31T20:07:13.608Z,36.55
2022-08-31T20:09:40.883Z,36.52
2022-08-31T20:12:08.002Z,36.38
2022-08-31T20:14:35.798Z,36.12
2022-08-31T20:17:05.162Z,36.25
2022-08-31T20:19:36.937Z,36.33
2022-08-31T20:22:06.813Z,36.71
2022-08-31T20:24:38.833Z,36.48
2022-08-31T20:27:13.018Z,36.89
2022-08-31T20:29:42.244Z,36.63
2022-08-31T20:32:09.683Z,36.63
2022-08-31T20:34:41.663Z,37.02
2022-08-31T20:37:10.770Z,36.79
2022-08-31T20:39:42.020Z,37.14
2022-08-31T20:42:13.192Z,37.64
2022-08-31T20:44:39.909Z,37.91
2022-08-31T20:47:28.849Z,37.65
2022-08-31T20:50:00.906Z,37.86
2022-08-31T20:52:33.035Z,38.24
2022-08-31T20:55:03.583Z,38.36
2022-08-31T20:57:32.416Z,38.61
2022-08-31T21:00:03.276Z,38.97
2022-08-31T21:02:35.182Z,38.83
2022-08-31T21:05:36.640Z,39.21
2022-08-31T21:07:53.277Z,39.15
2022-08-31T21:10:36.101Z,39.47
2022-08-31T21:13:04.204Z,39.76
2022-08-31T21:15:36.368Z,40.16
2022-08-31T21:18:03.081Z,40.30
2022-08-31T21:20:32.413Z,39.66
2022-08-31T21:22:59.196Z,39.98
2022-08-31T21:25:29.623Z,39.87
2022-08-31T21:27:59.995Z,40.10
2022-08-31T21:30:29.492Z,39.97
2022-08-31T21:32:56.317Z,40.62
2022-08-31T21:35:25.189Z,40.00
2022-08-31T21:37:58.941Z,40.09
2022-08-31T21:40:28.851Z,39.90
2022-08-31T21:42:55.983Z,39.96
2022-08-31T21:45:25.369Z,40.04
2022-08-31T21:47:52.250Z,39.79
2022-08-31T21:50:21.335Z,39.76
2022-08-31T21:52:48.132Z,39.92
2022-08-31T21:55:18.057Z,40.32
2022-08-31T21:57:44.924Z,39.44
2022-08-31T22:00:16.234Z,39.37
2022-08-31T22:02:50.925Z,39.51
2022-08-31T22:05:17.964Z,39.32
2022-08-31T22:07:47.234Z,39.56
2022-08-31T22:10:16.462Z,39.63
2022-08-31T22:12:43.181Z,39.34
2022-08-31T22:15:16.212Z,39.36
2022-08-31T22:18:06.060Z,39.01
2022-08-31T22:20:39.581Z,39.55
2022-08-31T22:23:09.147Z,39.09
2022-08-31T22:25:38.037Z,39.10
2022-08-31T22:28:09.363Z,39.17
2022-08-31T22:30:36.641Z,39.09
2022-08-31T22:33:04.343Z,39.16
2022-08-31T22:35:31.336Z,39.25
2022-08-31T22:38:00.591Z,39.05
2022-08-31T22:40:28.797Z,39.16
2022-08-31T22:42:55.672Z,38.99
2022-08-31T22:45:24.045Z,39.74
2022-08-31T22:47:50.873Z,40.06
2022-08-31T22:50:19.900Z,40.99
2022-08-31T22:52:49.331Z,41.17
2022-08-31T22:55:16.224Z,40.77
2022-08-31T22:57:43.462Z,41.03
2022-08-31T23:00:13.165Z,41.76
2022-08-31T23:02:45.280Z,42.25
2022-08-31T23:05:16.464Z,42.74
2022-08-31T23:07:43.377Z,43.24
2022-08-31T23:10:18.728Z,45.10
2022-08-31T23:12:47.428Z,44.48
2022-08-31T23:15:15.918Z,45.51
2022-08-31T23:17:46.101Z,46.26
2022-08-31T23:20:19.457Z,47.07
2022-08-31T23:22:49.687Z,47.78
2022-08-31T23:25:20.841Z,48.11
2022-08-31T23:27:48.082Z,48.44
2022-08-31T23:30:22.595Z,49.51
2022-08-31T23:32:53.197Z,49.69
2022-08-31T23:35:20.027Z,51.07
2022-08-31T23:37:47.438Z,51.97
2022-08-31T23:40:16.444Z,52.19
2022-08-31T23:42:45.816Z,54.61
2022-08-31T23:45:16.240Z,52.97
2022-08-31T23:47:43.018Z,53.13
2022-08-31T23:50:14.824Z,55.10
2022-08-31T23:52:43.658Z,55.03
2022-08-31T23:55:11.194Z,57.02
2022-08-31T23:57:38.126Z,55.48
